Search for airport 
image banner adimage banner adimage banner ad
image banner ad

8N1 - Grimes

Located in Bethel, United States

ICAO - 8N1, IATA -

Data provided by Airmate  

General information

Coordinates: N40°29'5" W76°15'49"
Elevation is 582 feet MSL.
Magnetic variation is -11° East
View others Airports in Pennsylvania

Operational data

Special qualification required
Current time UTC:
Current local time:
METAR: KMUI 091356Z AUTO 22003KT 10SM OVC090 10/03 A3008 RMK AO2 SLP191 T00950026
View NOTAMs / SUP AIP / TFR affecting this airport [VIEW]
Communications frequencies: [VIEW]

Runways:

RWY identifierQFULength (ft)Width (ft)SurfaceLDA (ft)
112720100GRASS
292720100GRASS

Airport contact information

Address: Bethel United States

Satellite view of 8N1